createdAt,value
2023-01-03T00:01:49.065Z,2.40
2023-01-03T00:04:21.183Z,2.03
2023-01-03T00:06:57.105Z,1.55
2023-01-03T00:12:44.541Z,1.75
2023-01-03T00:15:24.337Z,1.98
2023-01-03T00:17:56.986Z,1.70
2023-01-03T00:23:22.097Z,1.83
2023-01-03T00:28:39.855Z,1.77
2023-01-03T00:31:14.647Z,1.70
2023-01-03T00:33:52.998Z,1.73
2023-01-03T00:36:21.632Z,1.80
2023-01-03T00:38:52.073Z,2.15
2023-01-03T00:41:37.385Z,1.98
2023-01-03T00:44:17.713Z,1.80
2023-01-03T00:46:49.363Z,1.50
2023-01-03T00:49:27.361Z,1.63
2023-01-03T00:52:04.474Z,1.90
2023-01-03T00:54:41.433Z,1.50
2023-01-03T00:57:26.908Z,1.83
2023-01-03T01:00:11.304Z,1.80
2023-01-03T01:05:40.126Z,1.67
2023-01-03T01:08:13.987Z,1.55
2023-01-03T01:11:04.091Z,1.35
2023-01-03T01:13:48.322Z,1.70
2023-01-03T01:16:33.533Z,1.60
2023-01-03T01:19:22.685Z,1.50
2023-01-03T01:22:04.707Z,1.35
2023-01-03T01:24:42.627Z,1.35
2023-01-03T01:27:29.198Z,1.70
2023-01-03T01:30:20.404Z,1.40
2023-01-03T01:32:54.606Z,1.60
2023-01-03T01:35:41.010Z,1.77
2023-01-03T01:43:56.094Z,1.60
2023-01-03T01:46:32.784Z,1.60
2023-01-03T01:49:03.441Z,1.35
2023-01-03T01:51:54.342Z,1.40
2023-01-03T01:57:30.596Z,1.20
2023-01-03T02:00:01.566Z,1.70
2023-01-03T02:02:48.165Z,1.65
2023-01-03T02:08:12.825Z,1.52
2023-01-03T02:11:21.410Z,1.80
2023-01-03T02:14:08.309Z,1.40
2023-01-03T02:17:07.272Z,1.27
2023-01-03T02:19:51.367Z,1.27
2023-01-03T02:22:46.815Z,1.30
2023-01-03T02:25:31.593Z,1.30
2023-01-03T02:28:27.880Z,1.55
2023-01-03T02:31:10.497Z,1.30
2023-01-03T02:33:57.563Z,1.30
2023-01-03T02:36:37.630Z,1.52
2023-01-03T02:39:41.011Z,1.20
2023-01-03T02:42:34.510Z,1.65
2023-01-03T02:45:26.493Z,1.60
2023-01-03T02:48:25.263Z,1.40
2023-01-03T02:51:05.401Z,1.92
2023-01-03T02:53:40.510Z,1.52
2023-01-03T02:56:16.266Z,1.20
2023-01-03T02:59:03.530Z,1.88
2023-01-03T03:01:46.519Z,1.70
2023-01-03T03:04:27.490Z,1.85
2023-01-03T03:07:04.669Z,1.85
2023-01-03T03:10:00.312Z,2.03
2023-01-03T03:12:54.094Z,1.83
2023-01-03T03:15:35.275Z,1.70
2023-01-03T03:21:27.913Z,1.60
2023-01-03T03:27:34.602Z,1.73
2023-01-03T03:30:17.480Z,1.80
2023-01-03T03:35:35.801Z,1.40
2023-01-03T03:38:24.250Z,1.75
2023-01-03T03:41:29.707Z,1.80
2023-01-03T03:44:32.634Z,1.80
2023-01-03T03:47:13.076Z,1.88
2023-01-03T03:49:51.406Z,1.90
2023-01-03T03:52:31.369Z,2.17
2023-01-03T03:55:05.132Z,1.95
2023-01-03T03:57:58.594Z,2.20
2023-01-03T04:00:54.591Z,2.28
2023-01-03T04:03:50.521Z,2.25
2023-01-03T04:06:34.390Z,1.90
2023-01-03T04:09:10.233Z,2.40
2023-01-03T04:11:47.850Z,2.05
2023-01-03T04:14:34.469Z,1.80
2023-01-03T04:17:16.788Z,2.22
2023-01-03T04:20:08.483Z,2.13
2023-01-03T04:22:52.774Z,1.95
2023-01-03T04:25:44.572Z,1.80
2023-01-03T04:28:33.081Z,2.10
2023-01-03T04:31:26.762Z,1.90
2023-01-03T04:34:10.170Z,2.03
2023-01-03T04:39:47.762Z,2.08
2023-01-03T04:42:38.624Z,2.25
2023-01-03T04:45:21.383Z,2.33
2023-01-03T04:48:02.793Z,2.70
2023-01-03T04:50:46.060Z,2.08
2023-01-03T04:53:29.027Z,2.05
2023-01-03T04:58:43.197Z,2.00
2023-01-03T05:01:33.605Z,2.53
2023-01-03T05:04:36.907Z,2.70
2023-01-03T05:07:17.088Z,2.78
2023-01-03T05:09:50.931Z,2.92
2023-01-03T05:12:25.364Z,2.75
2023-01-03T05:15:12.124Z,2.70
2023-01-03T05:17:54.014Z,2.90
2023-01-03T05:20:42.509Z,2.85
2023-01-03T05:23:40.910Z,3.13
2023-01-03T05:26:22.326Z,3.17
2023-01-03T05:28:54.513Z,2.88
2023-01-03T05:31:43.446Z,3.50
2023-01-03T05:34:47.372Z,2.80
2023-01-03T05:37:28.607Z,3.20
2023-01-03T05:40:11.857Z,9.27
2023-01-03T05:42:49.693Z,3.58
2023-01-03T05:45:35.801Z,4.03
2023-01-03T05:48:19.221Z,3.22
2023-01-03T05:51:06.445Z,3.60
2023-01-03T05:53:39.883Z,3.90
2023-01-03T05:56:17.921Z,4.70
2023-01-03T05:58:57.274Z,12.88
2023-01-03T06:01:34.296Z,11.23
2023-01-03T06:04:36.544Z,10.75
2023-01-03T06:07:10.757Z,9.30
2023-01-03T06:09:54.982Z,6.90
2023-01-03T06:12:22.780Z,6.40
2023-01-03T06:15:10.580Z,5.05
2023-01-03T06:18:01.597Z,4.47
2023-01-03T06:20:39.776Z,4.20
2023-01-03T06:23:10.654Z,3.75
2023-01-03T06:25:51.777Z,4.72
2023-01-03T06:28:26.947Z,4.00
2023-01-03T06:31:08.486Z,4.32
2023-01-03T06:34:02.096Z,4.57
2023-01-03T06:36:40.792Z,3.70
2023-01-03T06:39:14.876Z,4.00
2023-01-03T06:42:02.126Z,4.40
2023-01-03T06:44:32.688Z,4.28
2023-01-03T06:47:26.097Z,4.07
2023-01-03T06:50:17.771Z,4.30
2023-01-03T06:53:06.016Z,4.25
2023-01-03T06:55:46.955Z,5.28
2023-01-03T07:00:54.482Z,5.93
2023-01-03T07:03:35.477Z,5.70
2023-01-03T07:06:03.516Z,5.78
2023-01-03T07:08:35.888Z,6.35
2023-01-03T07:11:16.319Z,7.22
2023-01-03T07:17:06.325Z,5.88
2023-01-03T07:19:47.298Z,5.82
2023-01-03T07:22:15.497Z,5.75
2023-01-03T07:24:55.708Z,6.18
2023-01-03T07:30:16.273Z,6.72
2023-01-03T07:32:58.286Z,7.65
2023-01-03T07:35:30.145Z,6.97
2023-01-03T07:38:08.906Z,6.87
2023-01-03T07:40:45.703Z,9.07
2023-01-03T07:43:48.035Z,10.90
2023-01-03T07:46:18.691Z,11.53
2023-01-03T07:49:11.033Z,10.40
2023-01-03T07:51:50.594Z,10.35
2023-01-03T07:54:31.501Z,10.73
2023-01-03T07:59:53.305Z,14.43
2023-01-03T08:02:25.669Z,12.85
2023-01-03T08:05:06.718Z,11.25
2023-01-03T08:07:41.611Z,9.60
2023-01-03T08:10:30.061Z,11.27
2023-01-03T08:13:18.079Z,9.63
2023-01-03T08:16:03.009Z,9.05
2023-01-03T08:18:33.112Z,8.93
2023-01-03T08:21:04.624Z,6.75
2023-01-03T08:23:56.332Z,4.75
2023-01-03T08:26:36.978Z,5.35
2023-01-03T08:29:11.032Z,5.70
2023-01-03T08:31:49.735Z,7.07
2023-01-03T08:34:29.486Z,7.60
2023-01-03T08:37:10.452Z,7.40
2023-01-03T08:40:18.012Z,7.50
2023-01-03T08:42:53.515Z,7.75
2023-01-03T08:45:33.822Z,7.45
2023-01-03T08:48:12.340Z,7.78
2023-01-03T08:50:43.227Z,6.65
2023-01-03T08:53:13.241Z,7.30
2023-01-03T08:55:51.772Z,6.40
2023-01-03T08:58:19.031Z,5.70
2023-01-03T09:00:46.266Z,5.30
2023-01-03T09:03:13.975Z,5.00
2023-01-03T09:05:41.358Z,4.95
2023-01-03T09:08:08.781Z,4.78
2023-01-03T09:10:39.691Z,4.18
2023-01-03T09:13:09.458Z,4.25
2023-01-03T09:15:36.717Z,4.82
2023-01-03T09:18:04.007Z,5.13
2023-01-03T09:20:31.276Z,4.35
2023-01-03T09:22:58.515Z,5.97
2023-01-03T09:25:25.881Z,6.40
2023-01-03T09:27:53.055Z,6.57
2023-01-03T09:30:20.849Z,7.13
2023-01-03T09:32:50.512Z,7.20
2023-01-03T09:35:17.788Z,6.53
2023-01-03T09:37:49.084Z,7.03
2023-01-03T09:40:16.852Z,5.97
2023-01-03T09:43:03.206Z,6.18
2023-01-03T09:45:32.605Z,6.38
2023-01-03T09:48:01.419Z,5.82
2023-01-03T09:50:44.292Z,6.60
2023-01-03T09:53:43.792Z,6.82
2023-01-03T09:56:31.261Z,6.10
2023-01-03T09:59:19.386Z,5.22
2023-01-03T10:02:18.383Z,5.10
2023-01-03T10:05:04.369Z,5.88
2023-01-03T10:07:42.809Z,5.38
2023-01-03T10:10:19.237Z,5.22
2023-01-03T10:12:53.740Z,5.05
2023-01-03T10:15:26.269Z,5.20
2023-01-03T10:18:12.172Z,5.25
2023-01-03T10:20:39.395Z,4.10
2023-01-03T10:23:09.237Z,3.20
2023-01-03T10:25:38.289Z,3.83
2023-01-03T10:28:11.252Z,3.97
2023-01-03T10:30:52.121Z,3.60
2023-01-03T10:33:34.673Z,3.08
2023-01-03T10:36:02.509Z,2.15
2023-01-03T10:38:30.151Z,2.55
2023-01-03T10:40:58.841Z,2.30
2023-01-03T10:43:30.959Z,2.63
2023-01-03T10:45:58.221Z,2.60
2023-01-03T10:48:26.171Z,1.90
2023-01-03T10:50:54.023Z,1.98
2023-01-03T10:53:22.784Z,1.77
2023-01-03T10:55:54.341Z,1.70
2023-01-03T10:58:27.072Z,1.70
2023-01-03T11:01:11.281Z,1.40
2023-01-03T11:03:51.008Z,1.60
2023-01-03T11:09:56.852Z,1.45
2023-01-03T11:12:28.058Z,1.50
2023-01-03T11:14:56.531Z,1.90
2023-01-03T11:17:25.294Z,1.75
2023-01-03T11:19:53.490Z,1.80
2023-01-03T11:22:29.781Z,2.00
2023-01-03T11:24:59.521Z,1.80
2023-01-03T11:27:35.632Z,1.40
2023-01-03T11:30:21.954Z,3.00
2023-01-03T11:32:55.281Z,4.45
2023-01-03T11:35:43.473Z,1.70
2023-01-03T11:38:24.253Z,1.10
2023-01-03T11:40:57.674Z,0.90
2023-01-03T11:43:43.705Z,1.85
2023-01-03T11:46:16.874Z,1.52
2023-01-03T11:49:06.689Z,1.10
2023-01-03T11:51:37.316Z,2.05
2023-01-03T11:54:12.370Z,1.40
2023-01-03T11:56:45.129Z,2.33
2023-01-03T12:01:58.190Z,2.17
2023-01-03T12:04:28.670Z,1.20
2023-01-03T12:07:45.237Z,1.58
2023-01-03T12:09:55.298Z,0.98
2023-01-03T12:12:25.851Z,0.90
2023-01-03T12:14:56.716Z,0.85
2023-01-03T12:17:38.725Z,1.08
2023-01-03T12:20:23.957Z,1.10
2023-01-03T12:23:03.912Z,1.05
2023-01-03T12:25:38.384Z,4.43
2023-01-03T12:28:08.700Z,2.53
2023-01-03T12:30:41.952Z,1.60
2023-01-03T12:33:20.830Z,1.00
2023-01-03T12:35:51.963Z,0.75
2023-01-03T12:38:21.669Z,1.00
2023-01-03T12:40:53.446Z,1.00
2023-01-03T12:43:26.091Z,1.00
2023-01-03T12:46:10.248Z,1.20
2023-01-03T12:48:46.071Z,1.00
2023-01-03T12:51:16.787Z,1.40
2023-01-03T12:53:50.880Z,1.30
2023-01-03T12:56:49.306Z,1.30
2023-01-03T12:59:36.488Z,1.00
2023-01-03T13:02:17.498Z,1.17
2023-01-03T13:04:47.562Z,1.05
2023-01-03T13:07:20.754Z,1.00
2023-01-03T13:10:01.344Z,1.42
2023-01-03T13:12:35.389Z,2.20
2023-01-03T13:15:21.345Z,3.97
2023-01-03T13:17:49.387Z,2.05
2023-01-03T13:20:32.041Z,1.33
2023-01-03T13:22:59.998Z,1.70
2023-01-03T13:25:27.273Z,26.00
2023-01-03T13:27:56.526Z,3.08
2023-01-03T13:30:23.697Z,9.18
2023-01-03T13:32:52.885Z,7.78
2023-01-03T13:35:29.590Z,14.57
2023-01-03T13:37:58.025Z,8.25
2023-01-03T13:41:16.062Z,5.40
2023-01-03T13:43:40.176Z,3.03
2023-01-03T13:46:36.751Z,10.85
2023-01-03T13:49:05.691Z,19.58
2023-01-03T13:51:47.447Z,20.52
2023-01-03T13:54:14.607Z,21.98
2023-01-03T13:56:44.817Z,5.10
2023-01-03T13:59:14.968Z,5.05
2023-01-03T14:02:01.300Z,1.15
2023-01-03T14:04:28.477Z,0.82
2023-01-03T14:06:58.757Z,0.98
2023-01-03T14:09:32.163Z,0.80
2023-01-03T14:12:08.443Z,1.10
2023-01-03T14:14:37.208Z,1.00
2023-01-03T14:17:04.871Z,1.10
2023-01-03T14:19:34.812Z,2.20
2023-01-03T14:22:27.951Z,3.85
2023-01-03T14:24:57.367Z,1.40
2023-01-03T14:27:28.136Z,1.50
2023-01-03T14:29:56.178Z,1.10
2023-01-03T14:32:33.654Z,1.63
2023-01-03T14:35:01.791Z,1.77
2023-01-03T14:37:29.084Z,2.20
2023-01-03T14:39:57.127Z,1.80
2023-01-03T14:42:24.672Z,1.17
2023-01-03T14:44:55.879Z,1.00
2023-01-03T14:47:24.046Z,1.23
2023-01-03T14:49:53.143Z,1.00
2023-01-03T14:52:31.614Z,0.90
2023-01-03T14:55:04.610Z,1.23
2023-01-03T14:57:32.333Z,1.10
2023-01-03T15:00:01.515Z,1.20
2023-01-03T15:02:31.823Z,1.25
2023-01-03T15:05:02.438Z,1.20
2023-01-03T15:07:39.105Z,1.00
2023-01-03T15:10:12.296Z,1.77
2023-01-03T15:12:40.791Z,2.03
2023-01-03T15:15:20.196Z,3.03
2023-01-03T15:17:49.790Z,3.97
2023-01-03T15:20:18.561Z,2.67
2023-01-03T15:22:45.922Z,2.35
2023-01-03T15:25:33.836Z,3.08
2023-01-03T15:28:19.830Z,3.13
2023-01-03T15:30:49.121Z,2.35
2023-01-03T15:33:21.961Z,3.03
2023-01-03T15:38:36.169Z,8.75
2023-01-03T15:41:42.059Z,8.25
2023-01-03T15:44:09.810Z,5.10
2023-01-03T15:46:37.420Z,3.35
2023-01-03T15:49:05.447Z,4.28
2023-01-03T15:51:32.639Z,6.40
2023-01-03T15:53:59.918Z,8.13
2023-01-03T15:56:35.638Z,8.98
2023-01-03T15:59:06.657Z,17.83
2023-01-03T16:01:34.042Z,11.05
2023-01-03T16:04:01.447Z,11.65
2023-01-03T16:06:28.679Z,16.50
2023-01-03T16:08:58.388Z,20.85
2023-01-03T16:11:33.819Z,23.10
2023-01-03T16:14:03.379Z,16.63
2023-01-03T16:16:32.958Z,17.38
2023-01-03T16:19:00.360Z,13.65
2023-01-03T16:21:27.791Z,15.43
2023-01-03T16:23:54.934Z,15.35
2023-01-03T16:26:22.152Z,18.40
2023-01-03T16:28:49.622Z,18.15
2023-01-03T16:31:21.840Z,15.40
2023-01-03T16:33:50.192Z,14.75
2023-01-03T16:36:37.382Z,13.18
2023-01-03T16:39:06.198Z,12.50
2023-01-03T16:41:33.348Z,11.52
2023-01-03T16:44:00.487Z,10.63
2023-01-03T16:46:29.087Z,11.15
2023-01-03T16:48:57.296Z,10.45
2023-01-03T16:51:26.733Z,9.75
2023-01-03T16:53:55.267Z,9.73
2023-01-03T16:56:22.787Z,10.43
2023-01-03T16:58:49.987Z,11.55
2023-01-03T17:01:17.328Z,12.63
2023-01-03T17:03:44.644Z,11.75
2023-01-03T17:06:22.723Z,10.77
2023-01-03T17:08:49.922Z,9.73
2023-01-03T17:11:17.252Z,10.57
2023-01-03T17:13:46.051Z,11.43
2023-01-03T17:16:15.115Z,11.75
2023-01-03T17:18:43.487Z,11.82
2023-01-03T17:21:21.754Z,12.50
2023-01-03T17:23:49.218Z,14.30
2023-01-03T17:26:18.855Z,14.10
2023-01-03T17:28:46.646Z,14.75
2023-01-03T17:31:18.465Z,14.57
2023-01-03T17:33:45.809Z,13.37
2023-01-03T17:36:17.417Z,14.95
2023-01-03T17:38:44.908Z,16.15
2023-01-03T17:41:18.221Z,14.98
2023-01-03T17:43:45.865Z,15.05
2023-01-03T17:46:39.221Z,15.63
2023-01-03T17:49:25.147Z,12.98
2023-01-03T17:51:57.137Z,12.15
2023-01-03T17:54:29.301Z,9.50
2023-01-03T17:56:57.794Z,7.93
2023-01-03T17:59:24.980Z,7.72
2023-01-03T18:01:52.482Z,7.50
2023-01-03T18:04:19.804Z,7.15
2023-01-03T18:06:50.500Z,6.47
2023-01-03T18:09:24.874Z,6.82
2023-01-03T18:11:52.790Z,6.65
2023-01-03T18:14:20.301Z,6.22
2023-01-03T18:16:53.161Z,6.70
2023-01-03T18:19:22.142Z,7.00
2023-01-03T18:21:49.963Z,9.40
2023-01-03T18:24:22.501Z,8.15
2023-01-03T18:26:52.732Z,13.25
2023-01-03T18:29:20.051Z,10.55
2023-01-03T18:31:47.949Z,10.65
2023-01-03T18:34:15.329Z,18.10
2023-01-03T18:36:44.128Z,24.88
2023-01-03T18:39:30.455Z,28.35
2023-01-03T18:42:17.067Z,35.22
2023-01-03T18:44:44.256Z,36.60
2023-01-03T18:47:14.879Z,35.42
2023-01-03T18:49:42.267Z,23.70
2023-01-03T18:52:38.756Z,25.45
2023-01-03T18:55:07.801Z,21.23
2023-01-03T18:57:35.053Z,18.27
2023-01-03T19:00:02.296Z,19.92
2023-01-03T19:02:30.444Z,17.67
2023-01-03T19:04:57.825Z,17.80
2023-01-03T19:07:26.755Z,16.20
2023-01-03T19:09:54.001Z,17.20
2023-01-03T19:12:21.167Z,18.65
2023-01-03T19:14:48.364Z,18.70
2023-01-03T19:17:17.019Z,19.20
2023-01-03T19:19:44.637Z,20.25
2023-01-03T19:22:30.668Z,19.90
2023-01-03T19:25:00.377Z,29.38
2023-01-03T19:27:34.657Z,40.85
2023-01-03T19:30:03.306Z,37.00
2023-01-03T19:32:30.714Z,33.88
2023-01-03T19:34:58.128Z,35.75
2023-01-03T19:37:25.300Z,33.17
2023-01-03T19:39:52.467Z,33.05
2023-01-03T19:42:40.336Z,34.50
2023-01-03T19:45:22.492Z,34.05
2023-01-03T19:47:49.731Z,31.88
2023-01-03T19:50:21.448Z,29.42
2023-01-03T19:52:48.996Z,27.10
2023-01-03T19:55:16.462Z,26.40
2023-01-03T19:57:44.927Z,27.02
2023-01-03T20:00:22.919Z,25.60
2023-01-03T20:02:52.705Z,25.65
2023-01-03T20:05:21.342Z,27.08
2023-01-03T20:07:49.156Z,25.75
2023-01-03T20:10:17.515Z,26.00
2023-01-03T20:12:44.944Z,28.65
2023-01-03T20:15:16.323Z,26.27
2023-01-03T20:17:43.539Z,29.10
2023-01-03T20:20:12.184Z,23.80
2023-01-03T20:23:08.148Z,25.63
2023-01-03T20:25:27.863Z,23.60
2023-01-03T20:27:55.519Z,18.77
2023-01-03T20:30:23.706Z,18.05
2023-01-03T20:32:51.005Z,18.75
2023-01-03T20:36:07.131Z,18.58
2023-01-03T20:38:06.490Z,19.45
2023-01-03T20:40:33.657Z,18.45
2023-01-03T20:43:03.082Z,19.48
2023-01-03T20:45:30.807Z,24.02
2023-01-03T20:47:58.040Z,24.45
2023-01-03T20:50:26.878Z,21.90
2023-01-03T20:52:55.078Z,23.15
2023-01-03T20:55:23.548Z,22.23
2023-01-03T20:57:50.690Z,22.42
2023-01-03T21:00:26.808Z,22.75
2023-01-03T21:02:54.161Z,20.55
2023-01-03T21:05:21.756Z,19.45
2023-01-03T21:08:07.584Z,17.67
2023-01-03T21:10:38.112Z,15.38
2023-01-03T21:13:05.483Z,14.32
2023-01-03T21:15:32.786Z,16.38
2023-01-03T21:18:00.014Z,13.85
2023-01-03T21:20:28.760Z,14.30
2023-01-03T21:22:56.024Z,15.45
2023-01-03T21:25:31.397Z,14.88
2023-01-03T21:27:58.658Z,15.13
2023-01-03T21:30:26.151Z,14.23
2023-01-03T21:32:53.363Z,14.32
2023-01-03T21:35:21.968Z,14.88
2023-01-03T21:37:49.946Z,13.52
2023-01-03T21:40:25.244Z,14.27
2023-01-03T21:43:05.952Z,16.98
2023-01-03T21:45:37.422Z,16.17
2023-01-03T21:48:06.266Z,16.52
2023-01-03T21:50:34.033Z,16.02
2023-01-03T21:53:01.356Z,13.88
2023-01-03T21:55:30.786Z,14.23
2023-01-03T21:57:58.354Z,14.50
2023-01-03T22:00:25.794Z,14.15
2023-01-03T22:03:15.950Z,13.27
2023-01-03T22:05:43.233Z,13.55
2023-01-03T22:08:10.732Z,11.65
2023-01-03T22:10:37.996Z,10.93
2023-01-03T22:13:06.668Z,10.95
2023-01-03T22:15:36.339Z,11.98
2023-01-03T22:18:03.581Z,11.23
2023-01-03T22:20:36.378Z,11.10
2023-01-03T22:23:06.653Z,11.68
2023-01-03T22:25:33.889Z,12.45
2023-01-03T22:28:01.123Z,12.60
2023-01-03T22:30:28.367Z,14.25
2023-01-03T22:32:57.487Z,16.08
2023-01-03T22:35:24.842Z,11.85
2023-01-03T22:37:52.046Z,10.35
2023-01-03T22:40:19.214Z,11.52
2023-01-03T22:42:46.341Z,9.20
2023-01-03T22:45:15.582Z,7.57
2023-01-03T22:47:43.327Z,7.40
2023-01-03T22:50:11.054Z,6.18
2023-01-03T22:52:40.133Z,5.45
2023-01-03T22:55:07.915Z,4.95
2023-01-03T22:57:35.070Z,4.28
2023-01-03T23:00:02.632Z,4.20
2023-01-03T23:02:31.430Z,4.45
2023-01-03T23:05:00.350Z,3.78
2023-01-03T23:07:27.562Z,3.97
2023-01-03T23:09:54.806Z,3.40
2023-01-03T23:12:40.607Z,3.78
2023-01-03T23:15:07.899Z,3.58
2023-01-03T23:17:53.840Z,3.63
2023-01-03T23:20:21.252Z,4.93
2023-01-03T23:22:51.658Z,4.32
2023-01-03T23:25:21.496Z,4.93
2023-01-03T23:27:48.634Z,4.88
2023-01-03T23:30:18.479Z,5.07
2023-01-03T23:32:45.766Z,5.35
2023-01-03T23:35:12.990Z,5.25
2023-01-03T23:37:40.852Z,5.30
2023-01-03T23:40:08.401Z,5.50
2023-01-03T23:42:35.598Z,5.30
2023-01-03T23:45:02.737Z,5.75
2023-01-03T23:47:29.865Z,6.57
2023-01-03T23:49:57.034Z,6.00
2023-01-03T23:52:24.261Z,5.68
2023-01-03T23:54:57.956Z,5.70
2023-01-03T23:57:27.816Z,6.70
2023-01-03T23:59:54.985Z,6.05
